Time;durP1;ratioP1;P1;durP2;ratioP2;P2;SDS_P1;SDS_P2;PMS_P1;PMS_P2;Temp;Humidity;BMP_temperature;BMP_pressure;BME280_temperature;BME280_humidity;BME280_pressure;Samples;Min_cycle;Max_cycle;Signal;HPM_P1;HPM_P2
2022/07/20 00:00:53;;;;;;;11.03;4.80;;;26.70;1.00;;;;;;5011740;28;20203;-82
2022/07/20 00:03:19;;;;;;;7.00;4.60;;;26.70;1.00;;;;;;5016107;28;20222;-82
2022/07/20 00:05:45;;;;;;;7.30;4.30;;;26.60;1.00;;;;;;5015540;28;20183;-82
2022/07/20 00:08:11;;;;;;;11.87;4.77;;;26.60;1.00;;;;;;5009717;28;21862;-82
2022/07/20 00:13:22;;;;;;;6.33;4.37;;;26.50;1.00;;;;;;5010594;28;20845;-82
2022/07/20 00:15:48;;;;;;;8.57;3.97;;;26.40;1.00;;;;;;5012710;28;20436;-83
2022/07/20 00:18:14;;;;;;;9.17;4.47;;;26.30;1.00;;;;;;5012003;28;20476;-82
2022/07/20 00:20:40;;;;;;;7.20;4.40;;;26.30;1.00;;;;;;5009460;28;20214;-82
2022/07/20 00:23:05;;;;;;;5.93;4.37;;;26.30;1.00;;;;;;5015375;28;20209;-82
2022/07/20 00:25:31;;;;;;;13.10;4.80;;;26.20;1.00;;;;;;5011484;28;20181;-82
2022/07/20 00:27:57;;;;;;;8.93;4.67;;;26.20;1.00;;;;;;5011084;28;20202;-82
2022/07/20 00:30:23;;;;;;;7.43;4.10;;;26.10;1.00;;;;;;5013204;28;20186;-82
2022/07/20 00:32:49;;;;;;;8.83;4.10;;;26.10;1.00;;;;;;5007587;28;20328;-82
2022/07/20 00:35:16;;;;;;;17.70;5.03;;;26.00;1.00;;;;;;5007552;28;20445;-82
2022/07/20 00:37:43;;;;;;;9.70;4.60;;;26.00;1.00;;;;;;5012371;28;20527;-82
2022/07/20 00:40:10;;;;;;;20.87;5.40;;;26.00;1.00;;;;;;5011261;28;20460;-82
2022/07/20 00:42:36;;;;;;;9.23;4.87;;;25.90;1.00;;;;;;5011872;28;20532;-82
2022/07/20 00:45:04;;;;;;;12.23;4.53;;;25.90;1.00;;;;;;5013783;28;20452;-82
2022/07/20 00:47:30;;;;;;;8.10;4.93;;;25.90;1.00;;;;;;5011992;28;20527;-81
2022/07/20 00:49:55;;;;;;;8.70;4.50;;;25.80;1.00;;;;;;5015108;28;20455;-81
2022/07/20 00:52:21;;;;;;;9.43;5.20;;;25.90;1.00;;;;;;5016317;28;20224;-82
2022/07/20 00:54:48;;;;;;;8.37;4.80;;;25.80;1.00;;;;;;5012634;28;20262;-82
2022/07/20 00:57:15;;;;;;;9.33;4.40;;;25.80;1.00;;;;;;5011609;28;20182;-82
2022/07/20 00:59:41;;;;;;;9.67;5.13;;;25.90;1.00;;;;;;5010186;28;20434;-82
2022/07/20 01:02:06;;;;;;;12.60;4.10;;;25.80;1.00;;;;;;5012202;28;20479;-83
2022/07/20 01:04:32;;;;;;;6.60;4.30;;;25.80;1.00;;;;;;5015583;28;20201;-82
2022/07/20 01:06:58;;;;;;;10.17;5.03;;;25.70;1.00;;;;;;5006258;28;20259;-83
2022/07/20 01:09:24;;;;;;;10.80;4.90;;;25.70;1.00;;;;;;5013060;28;20193;-83
2022/07/20 01:11:50;;;;;;;7.10;4.20;;;25.70;1.00;;;;;;5011275;28;20458;-82
2022/07/20 01:14:15;;;;;;;6.90;4.37;;;25.60;1.00;;;;;;5004288;28;20987;-82
2022/07/20 01:16:41;;;;;;;9.10;4.57;;;25.60;1.00;;;;;;5008386;28;20192;-82
2022/07/20 01:19:07;;;;;;;11.67;4.77;;;25.50;1.00;;;;;;5013932;28;20203;-82
2022/07/20 01:21:40;;;;;;;14.17;4.90;;;25.50;1.00;;;;;;5007851;28;20243;-83
2022/07/20 01:24:07;;;;;;;11.17;4.93;;;25.50;1.00;;;;;;5010704;28;20471;-82
2022/07/20 01:26:32;;;;;;;5.53;4.60;;;25.40;1.00;;;;;;5008536;28;20444;-82
2022/07/20 01:28:59;;;;;;;6.27;4.73;;;25.40;1.00;;;;;;5012747;28;20468;-82
2022/07/20 01:31:25;;;;;;;8.07;4.40;;;25.40;1.00;;;;;;5011024;28;20688;-82
2022/07/20 01:33:50;;;;;;;7.17;4.97;;;25.40;1.00;;;;;;5028754;28;20465;-82
2022/07/20 01:36:16;;;;;;;6.83;4.40;;;25.40;1.00;;;;;;5010243;28;20714;-82
2022/07/20 01:38:41;;;;;;;6.57;4.40;;;25.40;1.00;;;;;;5009494;28;20202;-82
2022/07/20 01:41:07;;;;;;;11.73;4.47;;;25.30;1.00;;;;;;5012357;28;20216;-82
2022/07/20 01:43:32;;;;;;;6.43;4.57;;;25.30;1.00;;;;;;5006904;28;20205;-81
2022/07/20 01:45:58;;;;;;;5.90;4.53;;;25.20;1.00;;;;;;5015740;28;20211;-82
2022/07/20 01:48:24;;;;;;;13.67;4.73;;;25.20;1.00;;;;;;5011549;28;20192;-81
2022/07/20 01:50:49;;;;;;;9.37;5.20;;;25.10;1.00;;;;;;5012605;28;20576;-81
2022/07/20 01:53:15;;;;;;;8.53;5.50;;;25.10;1.00;;;;;;5014327;28;20209;-81
2022/07/20 01:55:40;;;;;;;12.73;4.80;;;25.10;1.00;;;;;;5017174;28;20193;-81
2022/07/20 01:58:06;;;;;;;13.43;5.40;;;25.10;1.00;;;;;;5014276;28;20230;-81
2022/07/20 02:00:32;;;;;;;10.73;4.90;;;25.10;1.00;;;;;;5017269;28;20211;-81
2022/07/20 02:02:57;;;;;;;12.43;4.47;;;25.00;1.00;;;;;;5015696;28;20206;-81
2022/07/20 02:05:23;;;;;;;9.47;4.37;;;24.90;1.00;;;;;;5014707;28;20823;-82
2022/07/20 02:07:48;;;;;;;9.30;4.70;;;24.90;1.00;;;;;;5009833;28;20278;-82
2022/07/20 02:10:15;;;;;;;13.07;5.50;;;24.80;1.00;;;;;;5003023;28;20270;-82
2022/07/20 02:12:40;;;;;;;7.27;4.17;;;24.80;1.00;;;;;;5015219;28;20214;-82
2022/07/20 02:15:08;;;;;;;8.47;4.60;;;24.70;1.00;;;;;;5015406;28;20953;-82
2022/07/20 02:17:34;;;;;;;8.77;4.67;;;24.70;1.00;;;;;;5011589;28;20196;-82
2022/07/20 02:19:59;;;;;;;8.10;5.00;;;24.70;1.00;;;;;;5013069;28;20434;-82
2022/07/20 02:22:25;;;;;;;10.93;5.27;;;24.70;1.00;;;;;;5014129;28;20189;-82
2022/07/20 02:24:51;;;;;;;9.60;4.87;;;24.70;1.00;;;;;;5022576;28;20743;-82
2022/07/20 02:27:16;;;;;;;4.60;4.20;;;24.70;1.00;;;;;;5015839;28;20849;-82
2022/07/20 02:29:42;;;;;;;6.23;5.53;;;24.70;1.00;;;;;;5013389;28;20211;-82
2022/07/20 02:32:07;;;;;;;7.23;5.30;;;24.70;1.00;;;;;;5011069;28;20187;-82
2022/07/20 02:34:33;;;;;;;7.20;4.53;;;24.70;1.00;;;;;;5007586;28;20208;-82
2022/07/20 02:36:58;;;;;;;5.40;4.80;;;24.70;1.00;;;;;;5012762;28;20278;-82
2022/07/20 02:39:24;;;;;;;7.57;5.07;;;24.70;1.00;;;;;;5015888;28;20196;-82
2022/07/20 02:41:50;;;;;;;9.70;5.60;;;24.50;1.00;;;;;;5009421;28;20228;-81
2022/07/20 02:44:15;;;;;;;5.63;4.50;;;24.50;1.00;;;;;;5008702;28;20674;-82
2022/07/20 02:46:41;;;;;;;5.03;4.23;;;24.50;1.00;;;;;;5009560;28;20496;-81
2022/07/20 02:49:07;;;;;;;14.20;4.47;;;24.50;1.00;;;;;;5010583;28;20197;-81
2022/07/20 02:51:33;;;;;;;7.20;3.93;;;24.50;1.00;;;;;;5011277;28;20247;-81
2022/07/20 02:53:59;;;;;;;11.63;4.73;;;24.50;1.00;;;;;;5008998;28;20831;-81
2022/07/20 02:56:24;;;;;;;8.07;3.90;;;24.40;1.00;;;;;;5011211;28;20517;-82
2022/07/20 02:58:50;;;;;;;5.30;4.23;;;24.40;1.00;;;;;;5015552;28;20194;-81
2022/07/20 03:01:16;;;;;;;11.53;5.30;;;24.40;1.00;;;;;;5012173;28;20704;-81
2022/07/20 03:03:42;;;;;;;10.80;4.10;;;24.40;1.00;;;;;;5014450;28;20210;-81
2022/07/20 03:06:08;;;;;;;5.97;4.33;;;24.30;1.00;;;;;;5013668;28;20441;-82
2022/07/20 03:08:34;;;;;;;12.23;5.33;;;24.30;1.00;;;;;;5013727;28;20465;-82
2022/07/20 03:10:59;;;;;;;15.23;5.33;;;24.30;1.00;;;;;;5010029;28;20434;-81
2022/07/20 03:13:25;;;;;;;10.37;4.20;;;24.30;1.00;;;;;;5014193;28;20215;-81
2022/07/20 03:15:50;;;;;;;6.97;5.23;;;24.30;1.00;;;;;;5012381;28;20183;-81
2022/07/20 03:18:16;;;;;;;11.40;5.50;;;24.30;1.00;;;;;;5008827;28;20270;-81
2022/07/20 03:20:41;;;;;;;7.60;5.10;;;24.30;1.00;;;;;;5015120;28;20214;-81
2022/07/20 03:23:07;;;;;;;7.50;5.60;;;24.30;1.00;;;;;;5008125;28;20213;-81
2022/07/20 03:25:33;;;;;;;11.00;4.77;;;24.30;1.00;;;;;;5008793;28;20186;-81
2022/07/20 03:27:59;;;;;;;8.10;4.40;;;24.20;1.00;;;;;;5009199;28;20195;-81
2022/07/20 03:30:26;;;;;;;7.30;4.67;;;24.20;1.00;;;;;;5013640;28;20190;-81
2022/07/20 03:32:52;;;;;;;7.13;4.27;;;24.20;1.00;;;;;;5008971;28;20465;-82
2022/07/20 03:35:18;;;;;;;9.10;4.00;;;24.20;1.00;;;;;;5014542;28;20448;-82
2022/07/20 03:37:43;;;;;;;9.97;4.70;;;24.20;1.00;;;;;;5005175;28;20442;-81
2022/07/20 03:40:10;;;;;;;12.70;4.87;;;24.10;1.00;;;;;;5012415;28;20232;-81
2022/07/20 03:42:36;;;;;;;7.90;4.67;;;24.20;1.00;;;;;;5012634;28;20209;-81
2022/07/20 03:45:02;;;;;;;9.80;5.33;;;24.10;1.00;;;;;;5012049;28;20491;-81
2022/07/20 03:47:27;;;;;;;8.90;5.63;;;24.20;1.00;;;;;;5007302;28;20178;-82
2022/07/20 03:49:53;;;;;;;10.60;4.63;;;24.20;1.00;;;;;;5015627;28;20452;-81
2022/07/20 03:52:20;;;;;;;12.90;6.20;;;24.20;1.00;;;;;;5013761;28;20183;-81
2022/07/20 03:54:45;;;;;;;7.37;5.40;;;24.20;1.00;;;;;;5013737;28;20208;-81
2022/07/20 03:57:11;;;;;;;12.07;6.10;;;24.20;1.00;;;;;;5012229;28;20436;-81
2022/07/20 03:59:37;;;;;;;9.23;6.20;;;24.20;1.00;;;;;;5010883;28;20201;-81
2022/07/20 04:02:03;;;;;;;7.10;6.27;;;24.20;1.00;;;;;;5004765;28;20500;-81
2022/07/20 04:04:29;;;;;;;8.83;6.17;;;24.30;1.00;;;;;;5015425;28;20206;-81
2022/07/20 04:06:55;;;;;;;7.63;6.50;;;24.30;1.90;;;;;;5014629;28;20429;-81
2022/07/20 04:12:07;;;;;;;10.33;8.00;;;24.30;2.60;;;;;;5015035;28;20447;-81
2022/07/20 04:14:32;;;;;;;16.13;7.50;;;24.30;2.80;;;;;;5010660;28;20549;-81
2022/07/20 04:16:58;;;;;;;9.20;8.30;;;24.30;3.50;;;;;;5014197;28;20446;-81
2022/07/20 04:19:24;;;;;;;13.73;9.70;;;24.30;4.30;;;;;;5015131;28;20179;-81
2022/07/20 04:21:52;;;;;;;14.90;9.57;;;24.40;4.70;;;;;;5014919;28;20203;-81
2022/07/20 04:24:18;;;;;;;18.90;10.83;;;24.40;5.90;;;;;;5014030;28;20557;-81
2022/07/20 04:26:43;;;;;;;25.20;11.90;;;24.40;7.50;;;;;;5009067;28;20432;-81
2022/07/20 04:29:09;;;;;;;14.27;12.77;;;24.50;8.70;;;;;;5010371;28;20191;-81
2022/07/20 04:31:34;;;;;;;20.43;13.80;;;24.50;9.90;;;;;;5001218;28;20279;-81
2022/07/20 04:34:00;;;;;;;18.13;12.50;;;24.50;12.20;;;;;;5012706;28;20287;-81
2022/07/20 04:36:25;;;;;;;15.77;12.73;;;24.60;13.10;;;;;;5013721;28;20243;-81
2022/07/20 04:38:51;;;;;;;17.80;13.80;;;24.70;13.90;;;;;;5017618;28;20651;-81
2022/07/20 04:41:16;;;;;;;17.60;13.40;;;24.70;14.30;;;;;;5013529;28;20279;-81
2022/07/20 04:43:42;;;;;;;19.47;13.67;;;24.80;15.60;;;;;;5016788;28;20672;-81
2022/07/20 04:46:08;;;;;;;20.57;14.53;;;24.80;16.20;;;;;;5016224;28;20644;-82
2022/07/20 04:48:34;;;;;;;14.27;13.00;;;24.90;17.30;;;;;;5016789;28;20343;-82
2022/07/20 04:51:00;;;;;;;22.80;15.70;;;24.90;18.80;;;;;;5017639;28;20193;-82
2022/07/20 04:53:31;;;;;;;16.00;14.30;;;25.00;19.00;;;;;;5018556;28;20462;-82
2022/07/20 04:55:57;;;;;;;16.80;14.23;;;25.10;19.90;;;;;;5008755;28;20508;-82
2022/07/20 04:58:23;;;;;;;16.73;15.03;;;25.20;20.70;;;;;;5019970;28;20444;-82
2022/07/20 05:00:50;;;;;;;23.23;16.10;;;25.30;21.90;;;;;;5014131;28;20464;-82
2022/07/20 05:03:17;;;;;;;20.10;15.30;;;25.30;22.70;;;;;;5015747;28;20465;-82
2022/07/20 05:05:44;;;;;;;18.20;15.80;;;25.40;23.40;;;;;;5017822;28;20812;-80
2022/07/20 05:08:09;;;;;;;22.37;14.67;;;25.50;23.80;;;;;;5009293;28;20972;-81
2022/07/20 05:10:35;;;;;;;21.93;16.60;;;25.60;25.10;;;;;;5012245;28;20531;-81
2022/07/20 05:13:01;;;;;;;25.87;18.10;;;25.70;26.10;;;;;;5016202;28;20237;-81
2022/07/20 05:15:28;;;;;;;21.60;16.50;;;25.90;26.60;;;;;;5009753;28;20445;-81
2022/07/20 05:17:54;;;;;;;20.57;16.53;;;26.00;27.40;;;;;;5013224;28;20453;-81
2022/07/20 05:20:21;;;;;;;21.80;18.07;;;26.20;28.20;;;;;;5010793;28;20500;-81
2022/07/20 05:22:48;;;;;;;19.30;17.33;;;26.30;29.40;;;;;;5011982;28;20540;-81
2022/07/20 05:25:14;;;;;;;21.53;16.93;;;26.50;30.90;;;;;;5011360;28;21025;-80
2022/07/20 05:27:40;;;;;;;27.37;19.53;;;26.70;31.10;;;;;;5011231;28;20524;-81
2022/07/20 05:30:07;;;;;;;22.97;19.20;;;26.90;32.50;;;;;;5016303;28;20655;-81
2022/07/20 05:32:36;;;;;;;25.93;19.80;;;27.00;32.90;;;;;;5015794;28;20600;-81
2022/07/20 05:35:02;;;;;;;25.57;20.07;;;27.20;34.40;;;;;;5009597;28;20427;-81
2022/07/20 05:37:29;;;;;;;26.47;19.63;;;27.20;34.70;;;;;;5013710;28;20438;-81
2022/07/20 05:39:55;;;;;;;23.63;19.20;;;27.20;35.30;;;;;;5014928;28;20428;-81
2022/07/20 05:42:21;;;;;;;27.00;21.07;;;27.20;49.60;;;;;;5013203;28;20446;-81
2022/07/20 05:44:47;;;;;;;23.70;19.77;;;27.30;37.70;;;;;;5010352;28;20439;-81
2022/07/20 05:47:13;;;;;;;23.90;21.60;;;27.40;38.20;;;;;;5017086;28;20442;-81
2022/07/20 05:49:39;;;;;;;34.53;21.53;;;27.70;39.50;;;;;;5017554;28;20445;-81
2022/07/20 05:52:08;;;;;;;26.27;22.13;;;27.80;39.80;;;;;;5013523;28;20449;-81
2022/07/20 05:54:34;;;;;;;24.70;21.03;;;28.00;41.20;;;;;;5015325;28;20520;-81
2022/07/20 05:57:00;;;;;;;28.03;21.00;;;28.20;42.00;;;;;;5008525;28;20938;-81
2022/07/20 05:59:26;;;;;;;24.93;22.43;;;28.40;42.30;;;;;;5028238;28;20441;-81
2022/07/20 06:01:54;;;;;;;23.53;20.53;;;28.60;43.00;;;;;;5012413;28;20469;-81
2022/07/20 06:04:20;;;;;;;28.07;21.50;;;29.00;44.70;;;;;;5016843;28;20211;-82
2022/07/20 06:06:49;;;;;;;23.73;19.87;;;30.00;47.70;;;;;;5014603;28;20581;-81
2022/07/20 06:09:15;;;;;;;23.87;20.73;;;32.30;52.70;;;;;;5015137;28;20813;-82
2022/07/20 06:11:43;;;;;;;21.20;18.90;;;33.70;52.10;;;;;;5011283;28;20426;-82
2022/07/20 06:14:09;;;;;;;22.20;19.57;;;34.60;51.30;;;;;;5009807;28;20795;-82
2022/07/20 06:16:36;;;;;;;20.30;18.20;;;36.70;52.40;;;;;;5002863;28;20584;-82
2022/07/20 06:19:04;;;;;;;18.97;16.90;;;38.40;50.50;;;;;;5013359;28;20883;-83
2022/07/20 06:21:30;;;;;;;27.13;17.70;;;40.00;46.00;;;;;;5016128;28;20839;-80
2022/07/20 06:23:59;;;;;;;20.43;17.50;;;41.10;41.30;;;;;;5017195;28;20453;-80
2022/07/20 06:26:25;;;;;;;19.37;17.27;;;40.80;34.10;;;;;;5015855;28;20191;-82
2022/07/20 06:28:51;;;;;;;21.83;16.60;;;40.90;30.20;;;;;;5008424;28;20454;-81
2022/07/20 06:31:20;;;;;;;25.47;18.50;;;40.60;26.70;;;;;;5015886;28;20466;-81
2022/07/20 06:33:48;;;;;;;23.70;18.80;;;39.60;22.60;;;;;;5014964;28;20634;-81
2022/07/20 06:36:16;;;;;;;18.37;16.37;;;37.80;18.00;;;;;;5009599;28;20437;-82
2022/07/20 06:38:42;;;;;;;22.73;17.50;;;39.60;22.40;;;;;;5005939;28;20476;-81
2022/07/20 06:41:07;;;;;;;18.93;16.37;;;41.10;22.50;;;;;;5014669;28;20619;-81
2022/07/20 06:43:33;;;;;;;21.73;16.60;;;42.50;21.30;;;;;;5019525;28;20238;-81
2022/07/20 06:45:58;;;;;;;19.90;17.00;;;40.90;15.70;;;;;;5008902;28;20730;-79
2022/07/20 06:48:24;;;;;;;19.30;16.40;;;38.30;9.40;;;;;;5011354;28;20218;-80
2022/07/20 06:50:49;;;;;;;19.20;17.17;;;36.50;7.00;;;;;;5009492;28;20230;-80
2022/07/20 06:53:15;;;;;;;18.83;16.97;;;35.30;5.60;;;;;;5010282;28;22160;-81
2022/07/20 06:55:40;;;;;;;19.30;16.60;;;35.00;6.50;;;;;;5008044;28;20676;-81
2022/07/20 06:58:06;;;;;;;24.90;17.23;;;34.10;5.50;;;;;;5028692;28;20183;-81
2022/07/20 07:00:31;;;;;;;22.03;18.33;;;33.40;6.50;;;;;;5006363;28;21445;-80
2022/07/20 07:02:57;;;;;;;20.60;18.37;;;33.40;7.40;;;;;;5014811;28;20203;-80
2022/07/20 07:05:23;;;;;;;22.30;18.57;;;32.90;7.60;;;;;;5004867;28;20668;-80
2022/07/20 07:07:48;;;;;;;26.40;20.03;;;32.10;7.50;;;;;;5006664;28;20199;-81
2022/07/20 07:10:14;;;;;;;21.57;18.40;;;31.60;7.40;;;;;;5015151;28;20190;-81
2022/07/20 07:12:40;;;;;;;24.37;19.40;;;31.40;8.60;;;;;;5011071;28;20699;-80
2022/07/20 07:15:06;;;;;;;19.63;17.53;;;31.30;10.10;;;;;;5011819;28;20182;-80
2022/07/20 07:17:31;;;;;;;26.50;18.90;;;33.50;17.80;;;;;;5012176;28;20641;-81
2022/07/20 07:19:58;;;;;;;20.57;16.83;;;33.90;17.20;;;;;;5011674;28;20456;-81
2022/07/20 07:22:28;;;;;;;21.43;18.93;;;33.40;16.60;;;;;;5009133;28;20213;-82
2022/07/20 07:24:54;;;;;;;22.00;19.20;;;33.40;17.50;;;;;;5033924;28;20442;-81
2022/07/20 07:27:20;;;;;;;24.30;19.87;;;32.30;16.30;;;;;;5009664;28;20449;-81
2022/07/20 07:29:46;;;;;;;26.93;20.40;;;31.50;16.60;;;;;;5030705;28;20194;-80
2022/07/20 07:32:12;;;;;;;25.30;20.17;;;31.00;16.90;;;;;;5008531;28;20453;-81
2022/07/20 07:34:37;;;;;;;22.97;19.73;;;30.70;18.10;;;;;;5014040;28;20198;-81
2022/07/20 07:37:03;;;;;;;21.63;18.97;;;30.60;19.10;;;;;;5012405;28;20191;-80
2022/07/20 07:39:28;;;;;;;22.70;19.43;;;30.50;19.80;;;;;;5009980;28;20182;-80
2022/07/20 07:41:54;;;;;;;32.40;20.30;;;30.40;20.70;;;;;;5009990;28;20302;-80
2022/07/20 07:44:20;;;;;;;24.73;20.93;;;30.30;21.80;;;;;;5013704;28;20213;-81
2022/07/20 07:46:45;;;;;;;22.77;20.10;;;30.00;22.00;;;;;;5013527;28;20183;-80
2022/07/20 07:49:11;;;;;;;23.00;20.10;;;29.60;21.80;;;;;;5013350;28;20266;-80
2022/07/20 07:51:37;;;;;;;25.23;20.47;;;29.30;21.80;;;;;;5015896;28;20687;-81
2022/07/20 07:54:03;;;;;;;24.10;21.57;;;29.10;22.80;;;;;;5012044;28;20207;-79
2022/07/20 07:56:29;;;;;;;22.70;19.90;;;28.80;24.60;;;;;;5007922;28;20270;-81
2022/07/20 07:58:54;;;;;;;23.70;21.20;;;28.70;25.50;;;;;;5012983;28;20488;-79
2022/07/20 08:01:20;;;;;;;23.50;18.87;;;28.80;26.60;;;;;;5015756;28;20218;-80
2022/07/20 08:03:45;;;;;;;26.07;19.43;;;28.80;27.70;;;;;;5010727;28;20209;-82
2022/07/20 08:06:11;;;;;;;23.67;19.17;;;29.20;29.10;;;;;;5009765;28;20194;-81
2022/07/20 08:08:36;;;;;;;24.80;17.40;;;31.40;35.30;;;;;;5013605;28;20193;-80
2022/07/20 08:11:03;;;;;;;19.27;16.67;;;33.80;41.10;;;;;;5015714;28;20194;-82
2022/07/20 08:13:29;;;;;;;19.30;17.23;;;36.20;45.10;;;;;;5016430;28;20222;-81
2022/07/20 08:15:55;;;;;;;25.17;18.20;;;37.80;44.50;;;;;;5015121;28;20430;-82
2022/07/20 08:18:20;;;;;;;18.73;16.83;;;39.50;42.50;;;;;;5017087;28;20202;-81
2022/07/20 08:20:46;;;;;;;18.00;15.13;;;41.90;41.10;;;;;;5015019;28;20207;-81
2022/07/20 08:23:11;;;;;;;18.43;16.23;;;42.30;35.30;;;;;;5019786;28;20268;-82
2022/07/20 08:25:37;;;;;;;21.60;16.80;;;41.70;28.80;;;;;;5020318;28;20190;-81
2022/07/20 08:28:10;;;;;;;22.10;17.73;;;39.60;22.80;;;;;;5016575;28;20195;-81
2022/07/20 08:30:36;;;;;;;19.53;17.23;;;37.70;19.60;;;;;;5014621;28;20199;-82
2022/07/20 08:33:02;;;;;;;18.37;16.40;;;36.40;16.90;;;;;;5021259;28;20555;-81
2022/07/20 08:35:27;;;;;;;19.97;17.80;;;35.50;15.80;;;;;;5017785;28;20472;-80
2022/07/20 08:37:53;;;;;;;22.13;17.37;;;34.70;15.10;;;;;;5026258;28;20249;-81
2022/07/20 08:40:18;;;;;;;19.43;16.70;;;34.30;15.50;;;;;;5024877;28;20191;-80
2022/07/20 08:42:44;;;;;;;21.10;18.63;;;33.80;15.40;;;;;;5019509;28;20207;-80
2022/07/20 08:45:10;;;;;;;18.30;16.40;;;34.00;16.30;;;;;;5019040;28;20183;-82
2022/07/20 08:47:40;;;;;;;20.73;17.50;;;34.20;17.50;;;;;;5014880;28;20179;-79
2022/07/20 08:50:06;;;;;;;19.63;17.60;;;34.00;17.20;;;;;;5013410;28;20434;-81
2022/07/20 08:52:31;;;;;;;20.30;16.93;;;33.40;16.30;;;;;;5019161;28;20436;-80
2022/07/20 08:54:57;;;;;;;18.43;16.33;;;32.70;15.60;;;;;;5018192;28;20457;-79
2022/07/20 08:57:22;;;;;;;18.43;16.53;;;32.10;15.90;;;;;;5018231;28;20175;-79
2022/07/20 08:59:48;;;;;;;20.60;15.37;;;31.60;15.60;;;;;;5022803;28;20611;-80
2022/07/20 09:02:15;;;;;;;19.90;15.80;;;31.10;16.00;;;;;;5019099;28;20225;-79
2022/07/20 09:04:55;;;;;;;18.87;15.70;;;30.80;16.90;;;;;;5014998;28;20193;-80
2022/07/20 09:07:45;;;;;;;18.97;13.87;;;30.80;17.70;;;;;;5009906;28;20433;-79
2022/07/20 09:10:15;;;;;;;18.87;14.83;;;31.10;19.60;;;;;;5015077;28;20437;-80
2022/07/20 09:12:56;;;;;;;14.80;13.20;;;31.80;21.60;;;;;;5019862;28;20499;-81
2022/07/20 09:15:27;;;;;;;16.80;13.67;;;32.70;23.90;;;;;;5011424;28;20446;-80
2022/07/20 09:18:10;;;;;;;17.43;13.70;;;33.20;24.20;;;;;;5011436;28;20499;-80
2022/07/20 09:20:38;;;;;;;21.47;13.30;;;34.20;26.90;;;;;;5017281;28;20996;-80
2022/07/20 09:23:26;;;;;;;18.47;12.70;;;36.80;30.70;;;;;;5022177;28;20450;-80
2022/07/20 09:26:13;;;;;;;15.83;12.20;;;37.70;29.30;;;;;;5021055;28;20414;-80
2022/07/20 09:28:52;;;;;;;14.13;12.60;;;37.10;26.10;;;;;;5032442;28;20436;-81
2022/07/20 09:31:22;;;;;;;15.90;12.40;;;36.50;23.60;;;;;;5013863;28;20433;-80
2022/07/20 09:36:38;;;;;;;15.23;11.90;;;36.00;21.80;;;;;;5022018;28;20437;-80
2022/07/20 09:39:12;;;;;;;15.17;10.70;;;37.30;24.10;;;;;;5021919;28;20457;-81
2022/07/20 09:41:39;;;;;;;13.23;10.33;;;39.80;25.70;;;;;;5013686;28;20457;-81
2022/07/20 09:44:06;;;;;;;12.30;10.30;;;42.00;25.50;;;;;;5013961;28;20489;-81
2022/07/20 09:46:35;;;;;;;10.13;9.10;;;43.50;23.90;;;;;;5013964;28;20437;-81
2022/07/20 09:49:06;;;;;;;10.37;9.27;;;44.60;21.20;;;;;;5020820;28;20430;-79
2022/07/20 09:51:41;;;;;;;12.30;10.40;;;45.60;18.20;;;;;;5024225;28;20450;-79
2022/07/20 09:54:11;;;;;;;10.30;9.00;;;46.40;15.60;;;;;;5020207;28;20449;-80
2022/07/20 09:56:42;;;;;;;11.20;9.47;;;47.00;13.60;;;;;;5013536;28;20433;-79
2022/07/20 09:59:13;;;;;;;10.77;8.73;;;47.50;11.00;;;;;;5006043;28;20442;-81
2022/07/20 10:01:48;;;;;;;15.10;9.20;;;47.40;7.40;;;;;;5011075;28;20902;-79
2022/07/20 10:04:14;;;;;;;12.27;9.50;;;47.60;5.30;;;;;;5011613;28;20450;-80
2022/07/20 10:06:45;;;;;;;12.43;8.40;;;47.40;3.60;;;;;;5013081;28;20465;-81
2022/07/20 10:09:14;;;;;;;11.97;8.80;;;46.60;1.10;;;;;;5013255;28;20862;-80
2022/07/20 10:11:39;;;;;;;10.70;8.60;;;46.30;1.00;;;;;;5022280;28;20417;-80
2022/07/20 10:14:06;;;;;;;9.70;8.70;;;45.70;1.00;;;;;;5021622;28;20489;-81
2022/07/20 10:16:44;;;;;;;12.63;9.30;;;43.90;1.00;;;;;;5017343;28;20199;-80
2022/07/20 10:19:10;;;;;;;11.03;9.93;;;42.20;1.00;;;;;;5015783;28;20445;-79
2022/07/20 10:21:38;;;;;;;15.23;10.20;;;41.20;1.00;;;;;;5008881;28;20466;-80
2022/07/20 10:24:16;;;;;;;12.83;9.97;;;40.50;1.00;;;;;;5003696;28;20449;-81
2022/07/20 10:26:43;;;;;;;11.83;10.00;;;40.70;1.00;;;;;;5010736;28;20471;-80
2022/07/20 10:29:09;;;;;;;11.60;10.50;;;41.90;1.00;;;;;;5016227;28;20450;-81
2022/07/20 10:31:49;;;;;;;19.13;10.17;;;43.00;1.00;;;;;;5007742;28;20531;-80
2022/07/20 10:34:31;;;;;;;9.00;8.20;;;44.20;12.40;;;;;;5015789;28;20465;-81
2022/07/20 10:37:23;;;;;;;7.80;6.70;;;45.20;2.30;;;;;;5018560;28;20479;-81
2022/07/20 10:39:50;;;;;;;7.20;6.50;;;45.20;1.00;;;;;;5010879;28;20496;-81
2022/07/20 10:42:28;;;;;;;7.60;6.80;;;45.60;1.00;;;;;;5019572;28;20544;-81
2022/07/20 10:44:54;;;;;;;7.87;6.80;;;46.10;1.00;;;;;;5012647;28;20462;-82
2022/07/20 10:47:38;;;;;;;7.97;5.67;;;44.70;1.00;;;;;;5016615;28;20453;-80
2022/07/20 10:50:05;;;;;;;7.80;5.87;;;44.50;1.00;;;;;;5015611;28;20588;-81
2022/07/20 10:52:33;;;;;;;6.93;5.33;;;44.80;1.00;;;;;;5015262;28;20443;-81
2022/07/20 10:54:59;;;;;;;6.23;5.50;;;45.40;1.00;;;;;;5017728;28;20438;-82
2022/07/20 10:57:26;;;;;;;7.63;6.20;;;45.50;1.00;;;;;;5012576;28;20468;-81
2022/07/20 11:00:20;;;;;;;6.70;5.63;;;45.00;1.00;;;;;;5018315;28;20433;-81
2022/07/20 11:02:46;;;;;;;6.90;5.50;;;44.30;1.00;;;;;;5007719;28;20973;-81
2022/07/20 11:05:20;;;;;;;6.10;5.50;;;43.30;1.00;;;;;;5010624;28;20429;-82
2022/07/20 11:07:45;;;;;;;7.67;5.40;;;43.00;1.00;;;;;;5007939;28;20670;-80
2022/07/20 11:10:27;;;;;;;6.97;5.17;;;43.30;1.00;;;;;;5015135;28;20564;-81
2022/07/20 11:12:58;;;;;;;9.43;6.00;;;44.10;2.00;;;;;;5017766;28;20222;-81
2022/07/20 11:15:45;;;;;;;10.53;5.47;;;44.50;1.00;;;;;;5012150;28;20449;-82
2022/07/20 11:18:13;;;;;;;6.73;6.03;;;44.70;1.00;;;;;;5014118;28;20450;-82
2022/07/20 11:20:46;;;;;;;7.10;5.80;;;45.20;1.00;;;;;;5006060;28;20477;-81
2022/07/20 11:23:13;;;;;;;6.23;5.07;;;45.50;1.00;;;;;;5006849;28;20489;-82
2022/07/20 11:25:46;;;;;;;8.30;5.60;;;45.80;1.00;;;;;;5013652;28;20437;-82
2022/07/20 11:28:11;;;;;;;7.80;6.10;;;46.30;1.00;;;;;;5011507;28;20444;-82
2022/07/20 11:30:38;;;;;;;8.43;5.33;;;46.40;1.00;;;;;;5034529;28;20518;-81
2022/07/20 11:33:04;;;;;;;5.73;5.10;;;46.60;1.00;;;;;;4999261;28;20303;-82
2022/07/20 11:35:30;;;;;;;8.13;5.27;;;47.00;1.00;;;;;;5001167;28;20795;-81
2022/07/20 11:37:55;;;;;;;5.93;5.33;;;46.50;1.00;;;;;;5008981;28;20194;-81
2022/07/20 11:40:22;;;;;;;5.83;5.00;;;45.90;1.00;;;;;;5011481;28;20840;-82
2022/07/20 11:43:17;;;;;;;7.60;5.63;;;45.20;1.00;;;;;;5013390;28;20611;-82
2022/07/20 11:45:42;;;;;;;8.03;6.33;;;43.80;1.00;;;;;;5005282;28;20452;-81
2022/07/20 11:48:16;;;;;;;8.20;5.50;;;43.00;1.00;;;;;;5012185;28;20510;-82
2022/07/20 11:50:42;;;;;;;10.37;5.70;;;43.40;1.00;;;;;;5009783;28;20194;-81
2022/07/20 11:53:30;;;;;;;6.57;5.80;;;43.80;1.00;;;;;;5013696;28;20469;-81
2022/07/20 11:56:00;;;;;;;7.80;5.73;;;44.20;1.00;;;;;;5008180;28;20505;-82
2022/07/20 11:58:28;;;;;;;6.57;5.60;;;44.50;1.00;;;;;;5012752;28;20507;-82
2022/07/20 12:00:54;;;;;;;7.20;6.60;;;44.30;1.00;;;;;;5012902;28;20501;-81
2022/07/20 12:03:26;;;;;;;6.80;6.10;;;44.60;1.00;;;;;;5010088;28;20462;-82
2022/07/20 12:05:52;;;;;;;8.87;5.83;;;44.60;1.00;;;;;;5014701;28;20846;-81
2022/07/20 12:08:18;;;;;;;6.90;5.90;;;44.30;1.00;;;;;;5011392;28;20795;-81
2022/07/20 12:10:45;;;;;;;9.07;6.60;;;44.20;1.00;;;;;;5032694;28;20461;-82
2022/07/20 12:13:13;;;;;;;7.20;5.90;;;44.30;1.00;;;;;;5011380;28;20476;-82
2022/07/20 12:15:39;;;;;;;7.60;5.90;;;44.30;1.00;;;;;;5011432;28;20450;-80
2022/07/20 12:18:05;;;;;;;7.43;5.50;;;44.60;1.00;;;;;;5006683;28;20465;-81
2022/07/20 12:20:32;;;;;;;8.80;6.30;;;44.60;1.00;;;;;;5005907;28;20527;-81
2022/07/20 12:22:59;;;;;;;6.27;5.63;;;43.90;1.00;;;;;;5007205;28;20519;-81
2022/07/20 12:25:40;;;;;;;9.10;6.57;;;44.10;1.00;;;;;;5009209;28;20495;-81
2022/07/20 12:28:06;;;;;;;7.53;6.40;;;44.40;1.00;;;;;;5011460;28;20524;-81
2022/07/20 12:30:36;;;;;;;7.30;6.60;;;44.70;1.00;;;;;;5003677;28;20441;-81
2022/07/20 12:33:04;;;;;;;7.13;6.13;;;44.80;1.00;;;;;;5005211;28;20553;-81
2022/07/20 12:35:30;;;;;;;6.83;5.77;;;44.80;1.00;;;;;;5008025;28;20452;-84
2022/07/20 12:37:56;;;;;;;5.80;5.20;;;44.70;1.00;;;;;;5009898;28;20429;-81
2022/07/20 12:40:34;;;;;;;5.90;5.33;;;44.50;1.00;;;;;;5007788;28;20261;-82
2022/07/20 12:43:00;;;;;;;8.53;6.03;;;43.90;1.00;;;;;;5010383;28;20465;-82
2022/07/20 12:45:25;;;;;;;7.67;6.43;;;43.50;1.00;;;;;;5008635;28;20437;-80
2022/07/20 12:47:51;;;;;;;7.33;6.47;;;43.20;1.00;;;;;;5011418;28;20187;-82
2022/07/20 12:50:17;;;;;;;8.33;5.93;;;43.10;1.00;;;;;;5005216;28;20191;-81
2022/07/20 12:52:42;;;;;;;9.30;6.37;;;43.00;1.00;;;;;;5011307;28;20202;-81